Airfield :
LOGIN :

Register | Disclaimer

   EN    FR    IT 

 










Legend :    VFR   Marginal VFR   IFR   Intensive IFR   Very Intensive IFR
Visi :
Ceiling :
>= 8 km
>= 3000ft
5 to 8 km
1000 to 3000 ft
1500m to 5 km
500 to 1000 ft
800 to 1500m
200 to 500 ft
< 800m
< 200 ft
Symbols :   Thunderstorms  Fog  Heavy snow  Heavy precipitations  Wind > 20 kt
SIGMETs :     Misc.  Thunderstorms  Icing  Turbulence  Mountain Waves  Volcanic Ashes






- Airport Elevation : 17 ft
- IATA code : MPL


LFMT - Montpellier Méditerranée

CURRENT METAR :
  • 270630Z AUTO 05005KT CAVOK 02/02 Q1020 TEMPO 0500 FG VV///

EXPIRED METARs :
  • 270600Z AUTO 01003KT 330V030 CAVOK 03/03 Q1020 TEMPO 0500 FG VV///
  • 270530Z AUTO 05005KT 9000 NSC 02/02 Q1020 TEMPO 0500 FG VV///
  • 270500Z AUTO 02002KT 1900 BR NSC 02/02 Q1020 TEMPO 0500 FG VV///
  • 270430Z AUTO 32004KT 1600 1200 R30/1500U BR FEW003 03/03 Q1020 TEMPO 0500 FG VV///
  • 270400Z AUTO 27002KT 0800 0700 R30/1000D FG VV/// 02/02 Q1021 TEMPO 0500 FG

TAF TAF LFMT
Valid from the 27 at 03:00 until the 28 at 03:00 UTC


270200Z 2703/2803 VRB02KT 2000 BR NSC
TEMPO 2703/2710 0500 FG VV///
BECMG 2710/2713 07010KT 9999 NSW BKN012
BECMG 2715/2718 01010KT SCT020
BECMG 2721/2723 VRB04KT CAVOK
ATIS : +33 4 67 13 11 70



MET'MAP, your aeronautical weather chart ! - Copyright ORBIFLY December 2007 - Disclaimer

ORBIFLY MET'MAP TEAM :

Programming & Development : Alexandra Zaïnal
Concept & original design : Baudouin d'Aumeries
Assistance for programming : Marc-Olivier Méhu
Technical & hardware support : Manuel Goepfert

Contact : metmap@orbifly.com




SOURCES & CREDITS :

   NOAA